Main page
METAR-TAF:

METAR-TAF

Airports :

Conakry, Guinea

Conakry International Airport

latitude: 09-34N, longitude: 013-37W, elevation: 26 m

Current weather observation

The report was made 2 hours and 27 minutes ago, at 18:00 UTC
Wind 6 kt from the South
Temperature 29°C
Humidity 74%
Pressure 1008 hPa
Visibility: 5000 m
haze

METAR: GUCY 181800Z 18006KT 5000 HZ NSC 29/24 Q1008 TEMPO 4000 HZ

Time: 20:27 (20:27 UTC)

Forecast

The report was made 9 hours and 27 minutes ago, at 11:00 UTC
Forecast valid from 18 at 12 UTC to 19 at 18 UTC
Wind 8 kt from the North/Northwest
Visibility: 5000 m
haze
Temporary
from 18 at 15 UTC to 18 at 18 UTC
Few clouds at a height of 2000 ft
Scattered clouds at a height of 12000 ft
Becoming
from 19 at 04 UTC to 19 at 08 UTC
Wind 2 kt from variable directions
Visibility: 3000 m
Few clouds at a height of 1500 ft
Scattered clouds at a height of 11000 ft
mist

TAF: GUCY 181100Z 1812/1918 33008KT 5000 HZ NSC TEMPO 1815/1818 FEW020 SCT120 BECMG 1904/1908 VRB02KT 3000 BR FEW015 SCT110

Weather observations and forecasts of more than 4000 airports (METAR and TAF reports).

The available stations are represented by yellow and red dots on the map.

Hover mouse over dot to see the name of the station.

Then click to see weather observations and forecasts.

To change the map : click on the green buttons with a black cross to zoom in, on the green button with a dash to zoom out, or on the green arrows for adjacent maps.


METAR-TAF: